createdAt,value
2022-12-01T00:01:47.596Z,102833.20
2022-12-01T00:04:16.932Z,102832.41
2022-12-01T00:06:46.165Z,102833.25
2022-12-01T00:09:34.045Z,102829.80
2022-12-01T00:12:03.350Z,102828.89
2022-12-01T00:14:32.598Z,102827.20
2022-12-01T00:17:02.070Z,102829.34
2022-12-01T00:19:31.354Z,102825.03
2022-12-01T00:22:00.740Z,102830.12
2022-12-01T00:24:29.965Z,102827.08
2022-12-01T00:26:59.204Z,102822.85
2022-12-01T00:29:28.508Z,102820.25
2022-12-01T00:31:57.941Z,102823.20
2022-12-01T00:34:28.113Z,102822.73
2022-12-01T00:36:57.410Z,102820.52
2022-12-01T00:39:26.926Z,102819.69
2022-12-01T00:41:56.339Z,102818.78
2022-12-01T00:44:25.798Z,102822.73
2022-12-01T00:46:55.234Z,102823.95
2022-12-01T00:49:24.713Z,102828.30
2022-12-01T00:51:54.021Z,102823.83
2022-12-01T00:54:23.302Z,102827.83
2022-12-01T00:56:52.737Z,102823.95
2022-12-01T00:59:22.123Z,102821.77
2022-12-01T01:01:52.651Z,102818.38
2022-12-01T01:04:22.360Z,102822.61
2022-12-01T01:06:52.569Z,102816.68
2022-12-01T01:09:21.815Z,102825.06
2022-12-01T01:11:51.069Z,102832.25
2022-12-01T01:14:20.940Z,102828.25
2022-12-01T01:16:50.419Z,102830.95
2022-12-01T01:19:19.681Z,102827.31
2022-12-01T01:21:48.910Z,102832.44
2022-12-01T01:24:18.301Z,102837.66
2022-12-01T01:26:47.526Z,102836.87
2022-12-01T01:29:17.030Z,102837.86
2022-12-01T01:31:46.253Z,102853.52
2022-12-01T01:34:15.626Z,102855.22
2022-12-01T01:36:44.997Z,102851.30
2022-12-01T01:39:14.290Z,102859.12
2022-12-01T01:41:43.876Z,102857.83
2022-12-01T01:44:42.508Z,102859.05
2022-12-01T01:47:11.991Z,102857.78
2022-12-01T01:49:42.671Z,102851.06
2022-12-01T01:52:11.903Z,102856.44
2022-12-01T01:54:43.683Z,102854.78
2022-12-01T01:57:15.311Z,102861.62
2022-12-01T01:59:48.374Z,102861.77
2022-12-01T02:02:18.169Z,102858.08
2022-12-01T02:04:49.974Z,102860.52
2022-12-01T02:07:20.733Z,102856.86
2022-12-01T02:09:50.529Z,102857.47
2022-12-01T02:12:28.759Z,102851.90
2022-12-01T02:15:20.823Z,102857.75
2022-12-01T02:18:01.918Z,102853.58
2022-12-01T02:20:49.728Z,102853.62
2022-12-01T02:23:33.943Z,102857.55
2022-12-01T02:26:21.234Z,102852.02
2022-12-01T02:28:59.548Z,102855.78
2022-12-01T02:31:46.662Z,102852.25
2022-12-01T02:34:46.088Z,102844.33
2022-12-01T02:37:21.578Z,102842.02
2022-12-01T02:40:12.533Z,102851.06
2022-12-01T02:42:52.043Z,102850.42
2022-12-01T02:45:27.498Z,102849.11
2022-12-01T02:48:00.441Z,102852.55
2022-12-01T02:50:31.522Z,102848.53
2022-12-01T02:53:02.643Z,102854.03
2022-12-01T02:55:32.065Z,102845.27
2022-12-01T02:58:01.487Z,102846.83
2022-12-01T03:00:32.062Z,102841.10
2022-12-01T03:03:10.427Z,102850.11
2022-12-01T03:05:42.813Z,102848.73
2022-12-01T03:08:31.540Z,102846.55
2022-12-01T03:11:02.730Z,102849.12
2022-12-01T03:14:10.267Z,102856.00
2022-12-01T03:16:48.896Z,102843.87
2022-12-01T03:19:30.024Z,102851.62
2022-12-01T03:22:11.651Z,102848.58
2022-12-01T03:24:43.408Z,102846.80
2022-12-01T03:27:13.873Z,102853.72
2022-12-01T03:29:45.474Z,102842.77
2022-12-01T03:32:21.237Z,102845.06
2022-12-01T03:35:10.823Z,102839.73
2022-12-01T03:37:46.318Z,102844.59
2022-12-01T03:40:18.354Z,102841.59
2022-12-01T03:42:59.308Z,102838.46
2022-12-01T03:45:48.345Z,102835.39
2022-12-01T03:48:18.021Z,102834.59
2022-12-01T03:50:56.136Z,102835.11
2022-12-01T03:53:31.788Z,102838.27
2022-12-01T03:56:03.666Z,102844.34
2022-12-01T03:58:41.696Z,102839.34
2022-12-01T04:01:11.373Z,102841.62
2022-12-01T04:03:40.749Z,102839.84
2022-12-01T04:06:10.036Z,102837.59
2022-12-01T04:08:40.009Z,102841.11
2022-12-01T04:11:32.387Z,102841.43
2022-12-01T04:13:58.626Z,102844.27
2022-12-01T04:16:27.935Z,102841.62
2022-12-01T04:18:57.446Z,102844.47
2022-12-01T04:21:26.657Z,102844.19
2022-12-01T04:24:01.970Z,102845.42
2022-12-01T04:26:34.015Z,102842.09
2022-12-01T04:29:05.329Z,102844.67
2022-12-01T04:31:35.243Z,102845.02
2022-12-01T04:34:04.591Z,102844.08
2022-12-01T04:36:35.453Z,102848.10
2022-12-01T04:39:05.207Z,102852.84
2022-12-01T04:41:34.482Z,102851.07
2022-12-01T04:44:03.704Z,102844.08
2022-12-01T04:46:33.019Z,102850.52
2022-12-01T04:49:02.229Z,102855.77
2022-12-01T04:51:32.098Z,102854.39
2022-12-01T04:54:03.112Z,102854.91
2022-12-01T04:56:33.644Z,102856.48
2022-12-01T04:59:02.913Z,102849.09
2022-12-01T05:01:32.368Z,102846.48
2022-12-01T05:04:01.858Z,102844.23
2022-12-01T05:06:31.338Z,102835.94
2022-12-01T05:09:02.464Z,102840.80
2022-12-01T05:11:32.993Z,102839.05
2022-12-01T05:14:02.300Z,102839.41
2022-12-01T05:16:33.132Z,102844.70
2022-12-01T05:19:16.036Z,102841.11
2022-12-01T05:21:47.479Z,102840.67
2022-12-01T05:24:17.623Z,102843.56
2022-12-01T05:26:46.848Z,102858.33
2022-12-01T05:29:16.343Z,102849.20
2022-12-01T05:31:47.298Z,102848.22
2022-12-01T05:34:16.661Z,102849.12
2022-12-01T05:36:45.894Z,102845.17
2022-12-01T05:39:15.303Z,102850.91
2022-12-01T05:41:44.504Z,102853.20
2022-12-01T05:44:13.758Z,102855.22
2022-12-01T05:46:43.224Z,102850.98
2022-12-01T05:49:12.598Z,102857.03
2022-12-01T05:51:43.365Z,102854.55
2022-12-01T05:54:12.605Z,102855.73
2022-12-01T05:56:41.901Z,102855.69
2022-12-01T05:59:11.135Z,102862.17
2022-12-01T06:01:40.397Z,102859.80
2022-12-01T06:04:09.752Z,102859.80
2022-12-01T06:06:39.233Z,102856.75
2022-12-01T06:09:09.094Z,102855.41
2022-12-01T06:11:38.489Z,102857.57
2022-12-01T06:14:07.751Z,102859.71
2022-12-01T06:16:37.309Z,102858.84
2022-12-01T06:19:06.605Z,102861.84
2022-12-01T06:21:35.949Z,102869.36
2022-12-01T06:24:05.407Z,102872.84
2022-12-01T06:26:34.643Z,102876.84
2022-12-01T06:29:03.884Z,102872.52
2022-12-01T06:31:33.183Z,102875.61
2022-12-01T06:34:02.420Z,102869.41
2022-12-01T06:36:31.655Z,102869.80
2022-12-01T06:39:00.986Z,102870.70
2022-12-01T06:41:30.480Z,102875.80
2022-12-01T06:43:59.744Z,102872.02
2022-12-01T06:46:29.383Z,102872.56
2022-12-01T06:48:58.757Z,102873.08
2022-12-01T06:51:28.633Z,102869.84
2022-12-01T06:54:03.797Z,102869.33
2022-12-01T06:56:29.614Z,102884.22
2022-12-01T06:58:59.254Z,102885.34
2022-12-01T07:01:29.124Z,102898.98
2022-12-01T07:03:58.469Z,102896.85
2022-12-01T07:06:27.889Z,102905.64
2022-12-01T07:08:58.784Z,102901.03
2022-12-01T07:11:28.466Z,102908.08
2022-12-01T07:13:57.889Z,102903.53
2022-12-01T07:16:27.167Z,102903.17
2022-12-01T07:18:56.605Z,102906.34
2022-12-01T07:21:25.847Z,102909.84
2022-12-01T07:23:56.025Z,102915.58
2022-12-01T07:26:25.309Z,102914.09
2022-12-01T07:28:54.792Z,102911.52
2022-12-01T07:31:24.134Z,102921.63
2022-12-01T07:33:54.019Z,102917.28
2022-12-01T07:36:23.272Z,102919.36
2022-12-01T07:38:52.536Z,102917.66
2022-12-01T07:41:21.813Z,102905.03
2022-12-01T07:43:52.240Z,102898.19
2022-12-01T07:46:24.424Z,102905.75
2022-12-01T07:48:55.131Z,102904.23
2022-12-01T07:51:25.565Z,102908.72
2022-12-01T07:53:55.984Z,102917.05
2022-12-01T07:56:25.278Z,102920.58
2022-12-01T07:58:54.663Z,102924.08
2022-12-01T08:01:25.103Z,102928.03
2022-12-01T08:03:57.000Z,102931.73
2022-12-01T08:06:27.214Z,102929.61
2022-12-01T08:08:57.013Z,102937.25
2022-12-01T08:11:29.970Z,102930.17
2022-12-01T08:13:59.621Z,102936.11
2022-12-01T08:16:28.900Z,102940.91
2022-12-01T08:18:58.151Z,102940.06
2022-12-01T08:21:27.396Z,102942.47
2022-12-01T08:23:57.980Z,102942.88
2022-12-01T08:26:27.981Z,102943.28
2022-12-01T08:28:58.307Z,102940.70
2022-12-01T08:31:32.951Z,102944.52
2022-12-01T08:34:04.223Z,102945.20
2022-12-01T08:36:33.896Z,102951.31
2022-12-01T08:39:03.378Z,102962.13
2022-12-01T08:41:32.698Z,102957.70
2022-12-01T08:44:02.145Z,102955.35
2022-12-01T08:46:33.801Z,102959.63
2022-12-01T08:49:04.727Z,102961.24
2022-12-01T08:51:34.068Z,102960.74
2022-12-01T08:54:03.736Z,102954.44
2022-12-01T08:56:35.658Z,102960.89
2022-12-01T08:59:05.415Z,102961.16
2022-12-01T09:01:35.295Z,102968.24
2022-12-01T09:04:09.797Z,102963.93
2022-12-01T09:06:43.542Z,102965.97
2022-12-01T09:09:16.554Z,102968.11
2022-12-01T09:11:46.267Z,102966.53
2022-12-01T09:14:18.177Z,102971.12
2022-12-01T09:16:49.809Z,102970.11
2022-12-01T09:19:24.548Z,102971.45
2022-12-01T09:21:51.513Z,102977.67
2022-12-01T09:24:21.008Z,102968.67
2022-12-01T09:26:50.708Z,102974.83
2022-12-01T09:29:20.294Z,102973.88
2022-12-01T09:31:49.609Z,102972.87
2022-12-01T09:34:20.652Z,102973.36
2022-12-01T09:36:50.342Z,102970.00
2022-12-01T09:39:21.160Z,102973.00
2022-12-01T09:42:07.597Z,102973.67
2022-12-01T09:44:37.193Z,102977.38
2022-12-01T09:47:12.941Z,102969.98
2022-12-01T09:50:03.774Z,102966.23
2022-12-01T09:52:42.127Z,102973.97
2022-12-01T09:55:16.311Z,102968.59
2022-12-01T09:57:50.710Z,102959.67
2022-12-01T10:00:26.225Z,102960.33
2022-12-01T10:02:58.344Z,102961.22
2022-12-01T10:05:30.461Z,102949.05
2022-12-01T10:08:08.332Z,102951.63
2022-12-01T10:10:49.104Z,102938.72
2022-12-01T10:13:21.024Z,102948.83
2022-12-01T10:15:59.641Z,102942.80
2022-12-01T10:18:57.579Z,102946.38
2022-12-01T10:21:48.543Z,102940.42
2022-12-01T10:24:23.933Z,102941.52
2022-12-01T10:26:56.568Z,102943.34
2022-12-01T10:29:31.946Z,102943.73
2022-12-01T10:32:21.877Z,102937.25
2022-12-01T10:34:51.443Z,102937.73
2022-12-01T10:37:26.315Z,102939.17
2022-12-01T10:39:57.272Z,102937.44
2022-12-01T10:42:37.859Z,102937.30
2022-12-01T10:45:10.533Z,102937.17
2022-12-01T10:47:40.285Z,102931.72
2022-12-01T10:50:10.917Z,102934.06
2022-12-01T10:52:43.566Z,102921.48
2022-12-01T10:55:27.633Z,102929.88
2022-12-01T10:57:58.929Z,102932.14
2022-12-01T11:01:01.950Z,102932.54
2022-12-01T11:03:03.067Z,102928.27
2022-12-01T11:05:35.485Z,102928.77
2022-12-01T11:08:04.902Z,102926.16
2022-12-01T11:55:25.673Z,102883.57
2022-12-01T11:57:58.122Z,102875.91
2022-12-01T12:00:30.504Z,102874.86
2022-12-01T12:03:21.749Z,102877.87
2022-12-01T12:06:18.143Z,102873.95
2022-12-01T12:09:02.110Z,102876.82
2022-12-01T12:11:46.992Z,102872.31
2022-12-01T12:14:22.607Z,102877.02
2022-12-01T12:17:15.260Z,102872.20
2022-12-01T12:20:09.677Z,102871.53
2022-12-01T12:22:52.333Z,102872.04
2022-12-01T12:25:28.433Z,102867.33
2022-12-01T12:28:20.315Z,102864.78
2022-12-01T12:31:05.029Z,102871.59
2022-12-01T12:33:43.195Z,102863.78
2022-12-01T12:36:38.294Z,102870.42
2022-12-01T12:39:32.064Z,102866.13
2022-12-01T12:42:03.861Z,102862.59
2022-12-01T12:44:48.243Z,102860.36
2022-12-01T12:47:23.476Z,102859.38
2022-12-01T12:50:01.823Z,102858.66
2022-12-01T12:52:36.507Z,102854.52
2022-12-01T12:55:23.910Z,102851.89
2022-12-01T12:57:59.158Z,102839.63
2022-12-01T13:00:30.010Z,102841.36
2022-12-01T13:03:34.968Z,102844.64
2022-12-01T13:06:13.350Z,102842.06
2022-12-01T13:08:54.969Z,102843.73
2022-12-01T13:11:27.597Z,102846.23
2022-12-01T13:14:00.995Z,102841.72
2022-12-01T13:16:33.478Z,102844.87
2022-12-01T13:19:20.340Z,102835.28
2022-12-01T13:21:51.061Z,102837.80
2022-12-01T13:24:24.201Z,102832.20
2022-12-01T13:27:04.539Z,102838.91
2022-12-01T13:29:46.114Z,102841.05
2022-12-01T13:32:07.875Z,102836.14
2022-12-01T13:34:42.380Z,102841.33
2022-12-01T13:37:12.144Z,102839.00
2022-12-01T13:39:42.747Z,102837.13
2022-12-01T13:42:26.316Z,102833.47
2022-12-01T13:45:01.181Z,102826.92
2022-12-01T13:47:51.464Z,102828.95
2022-12-01T13:50:46.815Z,102827.38
2022-12-01T13:53:22.910Z,102824.55
2022-12-01T13:56:19.808Z,102822.47
2022-12-01T13:58:51.700Z,102821.05
2022-12-01T14:01:24.346Z,102827.33
2022-12-01T14:04:01.972Z,102832.27
2022-12-01T14:06:42.212Z,102826.41
2022-12-01T14:09:34.547Z,102825.19
2022-12-01T14:12:06.873Z,102817.39
2022-12-01T14:14:39.554Z,102821.87
2022-12-01T14:17:08.043Z,102827.66
2022-12-01T14:19:53.371Z,102823.24
2022-12-01T14:22:44.095Z,102824.64
2022-12-01T14:25:27.031Z,102826.37
2022-12-01T14:27:56.606Z,102818.17
2022-12-01T14:30:45.824Z,102821.59
2022-12-01T14:33:46.700Z,102819.17
2022-12-01T14:36:37.359Z,102810.77
2022-12-01T14:39:16.052Z,102816.29
2022-12-01T14:41:47.939Z,102810.30
2022-12-01T14:44:26.701Z,102809.63
2022-12-01T14:46:59.246Z,102815.14
2022-12-01T14:49:33.979Z,102819.87
2022-12-01T14:52:07.931Z,102816.97
2022-12-01T14:54:46.064Z,102806.27
2022-12-01T14:57:17.961Z,102810.71
2022-12-01T14:59:47.175Z,102817.81
2022-12-01T15:02:16.673Z,102818.86
2022-12-01T15:05:17.640Z,102816.00
2022-12-01T15:08:06.721Z,102822.19
2022-12-01T15:10:36.927Z,102827.63
2022-12-01T15:13:30.867Z,102824.67
2022-12-01T15:16:03.114Z,102828.41
2022-12-01T15:18:39.905Z,102828.62
2022-12-01T15:21:21.211Z,102824.48
2022-12-01T15:24:22.115Z,102823.35
2022-12-01T15:27:02.088Z,102821.81
2022-12-01T15:29:36.504Z,102826.45
2022-12-01T15:32:08.279Z,102826.69
2022-12-01T15:34:46.310Z,102828.62
2022-12-01T15:37:21.115Z,102822.27
2022-12-01T15:40:47.797Z,102835.85
2022-12-01T15:42:38.237Z,102833.00
2022-12-01T15:45:22.070Z,102830.98
2022-12-01T15:47:54.530Z,102833.30
2022-12-01T15:50:32.458Z,102834.23
2022-12-01T15:53:04.977Z,102833.95
2022-12-01T15:55:38.539Z,102832.86
2022-12-01T15:58:09.098Z,102827.83
2022-12-01T16:00:38.485Z,102833.37
2022-12-01T16:03:12.189Z,102831.44
2022-12-01T16:05:44.257Z,102830.71
2022-12-01T16:08:22.396Z,102829.58
2022-12-01T16:11:16.025Z,102835.82
2022-12-01T16:13:51.222Z,102845.84
2022-12-01T16:16:41.271Z,102850.55
2022-12-01T16:19:14.267Z,102843.97
2022-12-01T16:21:49.744Z,102850.84
2022-12-01T16:24:24.782Z,102841.23
2022-12-01T16:26:56.567Z,102842.00
2022-12-01T16:29:27.590Z,102833.75
2022-12-01T16:32:19.230Z,102837.19
2022-12-01T16:34:46.024Z,102832.72
2022-12-01T16:37:01.137Z,102839.73
2022-12-01T16:39:30.434Z,102848.88
2022-12-01T16:42:01.449Z,102839.39
2022-12-01T16:44:30.702Z,102845.56
2022-12-01T16:47:00.001Z,102849.91
2022-12-01T16:49:29.274Z,102850.73
2022-12-01T16:52:01.245Z,102848.41
2022-12-01T16:54:29.818Z,102852.38
2022-12-01T16:56:59.173Z,102845.00
2022-12-01T16:59:28.605Z,102844.09
2022-12-01T17:01:58.062Z,102848.10
2022-12-01T17:04:27.279Z,102846.53
2022-12-01T17:06:56.994Z,102845.32
2022-12-01T17:09:26.240Z,102847.09
2022-12-01T17:11:56.514Z,102847.52
2022-12-01T17:14:26.396Z,102851.36
2022-12-01T17:17:00.222Z,102848.83
2022-12-01T17:19:26.755Z,102848.48
2022-12-01T17:21:57.198Z,102846.78
2022-12-01T17:24:26.433Z,102842.91
2022-12-01T17:26:55.946Z,102843.52
2022-12-01T17:29:26.272Z,102830.98
2022-12-01T17:31:55.485Z,102833.46
2022-12-01T17:34:24.954Z,102832.12
2022-12-01T17:36:54.627Z,102832.22
2022-12-01T17:39:24.336Z,102827.17
2022-12-01T17:41:55.691Z,102829.77
2022-12-01T17:44:25.202Z,102822.52
2022-12-01T17:46:54.556Z,102820.41
2022-12-01T17:49:24.326Z,102819.28
2022-12-01T17:51:53.590Z,102827.03
2022-12-01T17:54:22.995Z,102822.30
2022-12-01T17:56:52.238Z,102823.30
2022-12-01T17:59:21.817Z,102823.39
2022-12-01T18:01:51.313Z,102820.73
2022-12-01T18:04:20.733Z,102819.46
2022-12-01T18:06:54.096Z,102821.56
2022-12-01T18:09:21.218Z,102820.01
2022-12-01T18:11:50.850Z,102824.86
2022-12-01T18:14:20.327Z,102827.46
2022-12-01T18:16:49.938Z,102829.27
2022-12-01T18:19:19.757Z,102825.72
2022-12-01T18:21:50.528Z,102824.10
2022-12-01T18:24:19.941Z,102827.62
2022-12-01T18:26:49.944Z,102834.59
2022-12-01T18:29:28.095Z,102834.59
2022-12-01T18:31:58.814Z,102829.03
2022-12-01T18:34:32.327Z,102835.55
2022-12-01T18:37:03.124Z,102836.47
2022-12-01T18:39:32.830Z,102835.17
2022-12-01T18:42:02.519Z,102835.20
2022-12-01T18:44:32.014Z,102834.33
2022-12-01T18:47:03.017Z,102827.78
2022-12-01T18:49:32.350Z,102832.50
2022-12-01T18:52:03.613Z,102828.06
2022-12-01T18:54:32.952Z,102822.50
2022-12-01T18:57:02.292Z,102829.98
2022-12-01T18:59:31.773Z,102823.88
2022-12-01T19:02:02.391Z,102820.50
2022-12-01T19:04:31.693Z,102817.03
2022-12-01T19:07:01.177Z,102830.25
2022-12-01T19:09:30.443Z,102823.98
2022-12-01T19:12:00.702Z,102816.33
2022-12-01T19:14:30.269Z,102821.61
2022-12-01T19:17:00.821Z,102819.80
2022-12-01T19:19:35.850Z,102820.77
2022-12-01T19:22:01.229Z,102821.66
2022-12-01T19:24:30.516Z,102816.84
2022-12-01T19:27:00.076Z,102819.42
2022-12-01T19:29:29.288Z,102817.66
2022-12-01T19:31:59.013Z,102818.91
2022-12-01T19:34:28.334Z,102815.11
2022-12-01T19:36:57.915Z,102822.45
2022-12-01T19:39:27.339Z,102822.58
2022-12-01T19:41:58.268Z,102821.39
2022-12-01T19:44:27.691Z,102823.09
2022-12-01T19:46:57.277Z,102818.73
2022-12-01T19:49:26.712Z,102822.26
2022-12-01T19:51:56.440Z,102824.86
2022-12-01T19:54:28.434Z,102824.47
2022-12-01T19:56:57.878Z,102819.20
2022-12-01T19:59:27.293Z,102826.18
2022-12-01T20:01:56.694Z,102820.14
2022-12-01T20:04:26.096Z,102816.30
2022-12-01T20:06:55.502Z,102822.00
2022-12-01T20:09:24.805Z,102818.54
2022-12-01T20:11:55.121Z,102821.59
2022-12-01T20:14:24.579Z,102819.50
2022-12-01T20:16:58.898Z,102819.97
2022-12-01T20:19:28.233Z,102819.25
2022-12-01T20:21:57.536Z,102822.30
2022-12-01T20:24:26.767Z,102824.30
2022-12-01T20:26:58.871Z,102818.16
2022-12-01T20:29:29.992Z,102817.36
2022-12-01T20:32:01.080Z,102822.13
2022-12-01T20:34:36.137Z,102818.05
2022-12-01T20:37:05.927Z,102818.18
2022-12-01T20:39:36.919Z,102817.11
2022-12-01T20:42:06.768Z,102812.75
2022-12-01T20:44:36.858Z,102812.66
2022-12-01T20:47:06.346Z,102812.70
2022-12-01T20:49:36.114Z,102813.05
2022-12-01T20:52:05.721Z,102811.35
2022-12-01T20:54:35.030Z,102809.09
2022-12-01T20:57:04.548Z,102812.05
2022-12-01T20:59:33.998Z,102811.20
2022-12-01T21:02:03.378Z,102808.09
2022-12-01T21:04:32.925Z,102807.70
2022-12-01T21:07:02.133Z,102803.81
2022-12-01T21:09:31.887Z,102813.64
2022-12-01T21:12:20.452Z,102806.66
2022-12-01T21:14:58.979Z,102800.55
2022-12-01T21:17:36.714Z,102800.03
2022-12-01T21:20:27.249Z,102801.68
2022-12-01T21:22:59.662Z,102796.37
2022-12-01T21:25:29.325Z,102791.09
2022-12-01T21:28:01.350Z,102790.05
2022-12-01T21:30:31.318Z,102791.26
2022-12-01T21:33:03.762Z,102791.20
2022-12-01T21:35:33.232Z,102798.88
2022-12-01T21:38:05.277Z,102795.70
2022-12-01T21:40:35.096Z,102790.49
2022-12-01T21:43:23.427Z,102787.86
2022-12-01T21:45:58.618Z,102780.83
2022-12-01T21:48:31.213Z,102787.30
2022-12-01T21:51:03.400Z,102784.23
2022-12-01T21:53:35.903Z,102783.28
2022-12-01T21:56:05.338Z,102769.77
2022-12-01T21:58:37.406Z,102763.73
2022-12-01T22:01:12.799Z,102762.03
2022-12-01T22:03:46.679Z,102762.52
2022-12-01T22:06:31.751Z,102766.86
2022-12-01T22:08:56.925Z,102765.40
2022-12-01T22:11:28.661Z,102755.69
2022-12-01T22:14:13.538Z,102744.38
2022-12-01T22:16:52.218Z,102755.49
2022-12-01T22:19:35.584Z,102754.63
2022-12-01T22:22:08.146Z,102751.59
2022-12-01T22:24:39.338Z,102750.22
2022-12-01T22:27:38.503Z,102747.58
2022-12-01T22:30:10.893Z,102742.88
2022-12-01T22:32:52.935Z,102749.28
2022-12-01T22:35:27.901Z,102746.57
2022-12-01T22:38:30.901Z,102740.50
2022-12-01T22:41:05.086Z,102733.41
2022-12-01T22:43:45.750Z,102738.58
2022-12-01T22:46:40.743Z,102744.73
2022-12-01T22:49:19.706Z,102751.67
2022-12-01T22:51:57.984Z,102748.81
2022-12-01T22:54:33.021Z,102749.68
2022-12-01T22:57:32.439Z,102749.61
2022-12-01T23:00:19.058Z,102743.50
2022-12-01T23:02:52.117Z,102739.52
2022-12-01T23:05:31.668Z,102737.54
2022-12-01T23:08:01.708Z,102742.28
2022-12-01T23:10:32.631Z,102739.34
2022-12-01T23:13:06.307Z,102735.52
2022-12-01T23:15:40.755Z,102741.63
2022-12-01T23:18:15.870Z,102730.92
2022-12-01T23:20:47.775Z,102740.94
2022-12-01T23:23:19.859Z,102738.70
2022-12-01T23:25:50.768Z,102731.78
2022-12-01T23:28:20.592Z,102738.30
2022-12-01T23:30:52.459Z,102731.35
2022-12-01T23:33:27.659Z,102735.26
2022-12-01T23:36:08.635Z,102728.28
2022-12-01T23:38:42.879Z,102725.27
2022-12-01T23:41:15.426Z,102730.92
2022-12-01T23:43:46.044Z,102727.87
2022-12-01T23:46:23.777Z,102721.33
2022-12-01T23:48:55.549Z,102713.95
2022-12-01T23:51:33.616Z,102710.73
2022-12-01T23:54:06.034Z,102710.73
2022-12-01T23:56:37.103Z,102712.53
2022-12-01T23:59:09.340Z,102710.69
